createdAt,value
2022-12-17T00:01:39.612Z,9.2
2022-12-17T00:04:41.570Z,8.7
2022-12-17T00:07:43.544Z,8.1
2022-12-17T00:10:45.511Z,9.1
2022-12-17T00:13:47.472Z,8.5
2022-12-17T00:16:49.428Z,8.9
2022-12-17T00:19:51.403Z,10.8
2022-12-17T00:22:53.443Z,9.9
2022-12-17T00:25:55.342Z,8.4
2022-12-17T00:28:57.282Z,8.6
2022-12-17T00:31:59.256Z,7.8
2022-12-17T00:35:01.222Z,9.3
2022-12-17T00:38:03.178Z,9.4
2022-12-17T00:41:05.157Z,10.8
2022-12-17T00:44:07.092Z,9.9
2022-12-17T00:47:09.103Z,10.1
2022-12-17T00:50:11.025Z,10.6
2022-12-17T00:53:12.998Z,11
2022-12-17T00:56:14.960Z,10.9
2022-12-17T00:59:16.937Z,12.5
2022-12-17T01:02:19.067Z,13.5
2022-12-17T01:05:20.852Z,12.2
2022-12-17T01:08:22.833Z,12.6
2022-12-17T01:11:24.804Z,13.2
2022-12-17T01:14:26.753Z,10.5
2022-12-17T01:17:28.737Z,11.3
2022-12-17T01:20:30.692Z,17.3
2022-12-17T01:23:32.801Z,13.5
2022-12-17T01:26:34.656Z,12.2
2022-12-17T01:29:36.605Z,12.4
2022-12-17T01:32:38.566Z,12.8
2022-12-17T01:35:40.522Z,11.4
2022-12-17T01:38:42.481Z,12
2022-12-17T01:41:44.448Z,14.9
2022-12-17T01:44:46.398Z,13.7
2022-12-17T01:47:48.354Z,15
2022-12-17T01:50:50.367Z,13.8
2022-12-17T01:53:52.310Z,14.9
2022-12-17T01:56:54.282Z,15.6
2022-12-17T01:59:56.235Z,14.7
2022-12-17T02:02:58.257Z,13.7
2022-12-17T02:06:00.178Z,15.2
2022-12-17T02:09:02.095Z,13.9
2022-12-17T02:12:04.066Z,14.1
2022-12-17T02:15:06.018Z,14.2
2022-12-17T02:18:07.984Z,14.2
2022-12-17T02:21:09.953Z,12.2
2022-12-17T02:24:11.909Z,11.9
2022-12-17T02:27:13.894Z,16.9
2022-12-17T02:30:15.856Z,15.2
2022-12-17T02:33:17.809Z,15.5
2022-12-17T02:36:19.784Z,17.6
2022-12-17T02:39:21.752Z,15.5
2022-12-17T02:42:23.752Z,15
2022-12-17T02:45:25.700Z,12.9
2022-12-17T02:48:27.643Z,15.7
2022-12-17T02:51:29.628Z,17
2022-12-17T02:54:31.590Z,16.5
2022-12-17T02:57:33.550Z,16.4
2022-12-17T03:00:35.539Z,17.3
2022-12-17T03:03:37.784Z,16.1
2022-12-17T03:06:39.448Z,14.7
2022-12-17T03:09:41.413Z,16.6
2022-12-17T03:12:43.384Z,17.1
2022-12-17T03:15:45.343Z,15.2
2022-12-17T03:18:47.283Z,17.7
2022-12-17T03:21:49.250Z,17.1
2022-12-17T03:24:51.205Z,17.8
2022-12-17T03:27:53.165Z,16.3
2022-12-17T03:30:55.160Z,18.2
2022-12-17T03:33:57.061Z,16.9
2022-12-17T03:36:59.033Z,17.7
2022-12-17T03:40:00.990Z,14
2022-12-17T03:43:02.952Z,15.2
2022-12-17T03:46:04.969Z,16.2
2022-12-17T03:49:06.875Z,16.9
2022-12-17T03:52:08.855Z,18.7
2022-12-17T03:55:10.803Z,16.9
2022-12-17T03:58:12.761Z,16.2
2022-12-17T04:01:14.845Z,16.1
2022-12-17T04:04:16.691Z,17.7
2022-12-17T04:07:18.651Z,15.8
2022-12-17T04:10:20.624Z,15.5
2022-12-17T04:13:22.581Z,15.8
2022-12-17T04:16:24.535Z,16.9
2022-12-17T04:19:26.511Z,15.5
2022-12-17T04:22:28.444Z,18.2
2022-12-17T04:25:30.423Z,18.2
2022-12-17T04:28:32.387Z,15.9
2022-12-17T04:31:34.405Z,17.1
2022-12-17T04:34:36.307Z,18.2
2022-12-17T04:37:38.264Z,17.1
2022-12-17T04:40:40.240Z,16.1
2022-12-17T04:43:42.197Z,15.3
2022-12-17T04:46:44.219Z,16.8
2022-12-17T04:49:46.128Z,17.4
2022-12-17T04:52:48.095Z,15.7
2022-12-17T04:55:50.061Z,17.4
2022-12-17T04:58:52.031Z,17.2
2022-12-17T05:01:54.096Z,17.4
2022-12-17T05:04:55.941Z,15
2022-12-17T05:07:57.888Z,17
2022-12-17T05:10:59.852Z,16.7
2022-12-17T05:14:01.820Z,17.2
2022-12-17T05:17:03.783Z,17.7
2022-12-17T05:20:05.753Z,16.8
2022-12-17T05:23:07.745Z,16.8
2022-12-17T05:26:09.672Z,17.4
2022-12-17T05:29:15.756Z,16.8
2022-12-17T05:32:13.594Z,16.5
2022-12-17T05:35:15.602Z,17
2022-12-17T05:38:17.508Z,16.9
2022-12-17T05:41:19.460Z,17.4
2022-12-17T05:44:21.415Z,16.1
2022-12-17T05:47:23.386Z,16
2022-12-17T05:50:25.336Z,16.8
2022-12-17T05:53:27.321Z,18.1
2022-12-17T05:56:29.292Z,16.4
2022-12-17T05:59:31.247Z,17.3
2022-12-17T06:02:33.346Z,17.6
2022-12-17T06:05:35.155Z,16.7
2022-12-17T06:08:37.147Z,17.1
2022-12-17T06:11:39.090Z,16.3
2022-12-17T06:14:41.051Z,15
2022-12-17T06:17:42.991Z,16.7
2022-12-17T06:20:44.987Z,17.1
2022-12-17T06:23:46.916Z,14.6
2022-12-17T06:26:48.885Z,15.9
2022-12-17T06:29:50.839Z,16
2022-12-17T06:32:52.802Z,17.5
2022-12-17T06:35:54.761Z,15
2022-12-17T06:38:56.715Z,14.8
2022-12-17T06:42:04.125Z,14.5
2022-12-17T06:45:00.684Z,15.3
2022-12-17T06:48:02.617Z,15.7
2022-12-17T06:51:04.573Z,14.6
2022-12-17T06:54:06.542Z,15
2022-12-17T06:57:08.510Z,15.4
2022-12-17T07:00:10.476Z,16
2022-12-17T07:03:14.762Z,14.9
2022-12-17T07:06:14.407Z,14.8
2022-12-17T07:09:16.390Z,13.1
2022-12-17T07:12:18.335Z,13.4
2022-12-17T07:15:20.324Z,13.7
2022-12-17T07:18:22.283Z,13.6
2022-12-17T07:21:24.252Z,14.4
2022-12-17T07:24:26.207Z,16.8
2022-12-17T07:27:28.291Z,13.9
2022-12-17T07:30:30.263Z,14.6
2022-12-17T07:33:32.254Z,16.5
2022-12-17T07:36:34.199Z,15.6
2022-12-17T07:39:36.147Z,15
2022-12-17T07:42:38.146Z,17.1
2022-12-17T07:45:40.196Z,17.6
2022-12-17T07:48:42.055Z,16.4
2022-12-17T07:51:44.027Z,16.4
2022-12-17T07:54:46.004Z,18.1
2022-12-17T07:57:47.952Z,16.1
2022-12-17T08:00:50.012Z,15.2
2022-12-17T08:03:51.865Z,17
2022-12-17T08:06:58.463Z,15.3
2022-12-17T08:09:55.825Z,15.1
2022-12-17T08:12:57.784Z,14.6
2022-12-17T08:15:59.780Z,15.7
2022-12-17T08:19:01.751Z,15.8
2022-12-17T08:22:03.688Z,13.1
2022-12-17T08:25:05.662Z,15.7
2022-12-17T08:28:11.278Z,15
2022-12-17T08:31:09.669Z,18.7
2022-12-17T08:34:11.549Z,16.7
2022-12-17T08:37:13.507Z,14.6
2022-12-17T08:40:15.450Z,17.5
2022-12-17T08:43:17.434Z,14.4
2022-12-17T08:46:19.418Z,16.6
2022-12-17T08:49:21.348Z,14.6
2022-12-17T08:52:23.300Z,15.7
2022-12-17T08:55:25.254Z,17.9
2022-12-17T08:58:27.229Z,13.7
2022-12-17T09:01:29.264Z,17.7
2022-12-17T09:04:31.173Z,19.6
2022-12-17T09:07:33.112Z,17.5
2022-12-17T09:10:35.082Z,15.5
2022-12-17T09:13:37.281Z,17.8
2022-12-17T09:16:39.056Z,16.9
2022-12-17T09:19:40.976Z,18.5
2022-12-17T09:22:42.918Z,14.8
2022-12-17T09:25:44.952Z,16.1
2022-12-17T09:28:46.868Z,17.9
2022-12-17T09:31:48.830Z,14.8
2022-12-17T09:34:50.839Z,19.1
2022-12-17T09:37:52.806Z,15.8
2022-12-17T09:40:54.788Z,16.8
2022-12-17T09:43:56.730Z,15.3
2022-12-17T09:46:58.714Z,19.4
2022-12-17T09:50:00.663Z,19.4
2022-12-17T09:53:02.641Z,19.6
2022-12-17T09:56:04.611Z,18.8
2022-12-17T09:59:06.568Z,21.1
2022-12-17T10:02:08.703Z,24.4
2022-12-17T10:05:10.503Z,26.1
2022-12-17T10:08:12.459Z,23.7
2022-12-17T10:11:14.420Z,20.1
2022-12-17T10:14:16.384Z,20.7
2022-12-17T10:17:18.476Z,18.5
2022-12-17T10:20:20.311Z,17.5
2022-12-17T10:23:22.267Z,20.6
2022-12-17T10:26:24.229Z,18.4
2022-12-17T10:29:26.188Z,18.2
2022-12-17T10:32:28.168Z,15.6
2022-12-17T10:35:30.112Z,15.4
2022-12-17T10:38:32.089Z,15.1
2022-12-17T10:41:34.062Z,17.5
2022-12-17T10:44:36.026Z,15.6
2022-12-17T10:47:37.997Z,15.9
2022-12-17T10:50:39.975Z,13.8
2022-12-17T10:53:41.923Z,13
2022-12-17T10:56:43.896Z,15.9
2022-12-17T10:59:45.842Z,15.2
2022-12-17T11:02:48.026Z,16.8
2022-12-17T11:05:50.575Z,16.2
2022-12-17T11:08:51.744Z,16.5
2022-12-17T11:11:53.692Z,13.9
2022-12-17T11:14:55.670Z,17.5
2022-12-17T11:17:57.629Z,17
2022-12-17T11:20:59.592Z,15.2
2022-12-17T11:24:01.571Z,16
2022-12-17T11:27:03.520Z,18
2022-12-17T11:30:05.470Z,15.1
2022-12-17T11:33:07.443Z,16
2022-12-17T11:36:09.366Z,13.9
2022-12-17T11:39:11.342Z,16.4
2022-12-17T11:42:13.303Z,15.7
2022-12-17T11:45:15.255Z,14.8
2022-12-17T11:48:17.236Z,13.2
2022-12-17T11:51:19.479Z,16.8
2022-12-17T11:54:21.175Z,16.9
2022-12-17T11:57:23.131Z,15.8
2022-12-17T12:00:25.091Z,18.9
2022-12-17T12:03:27.177Z,15.3
2022-12-17T12:06:29.024Z,18
2022-12-17T12:09:30.987Z,17.5
2022-12-17T12:12:32.936Z,18.1
2022-12-17T12:15:34.913Z,16.9
2022-12-17T12:18:37.292Z,17.8
2022-12-17T12:21:38.874Z,16.7
2022-12-17T12:24:40.851Z,15.5
2022-12-17T12:27:43.169Z,15.1
2022-12-17T12:30:44.756Z,15.9
2022-12-17T12:33:46.725Z,18
2022-12-17T12:36:48.696Z,15.7
2022-12-17T12:39:50.687Z,16.4
2022-12-17T12:42:52.613Z,17.9
2022-12-17T12:45:54.630Z,21.2
2022-12-17T12:48:56.537Z,17.8
2022-12-17T12:51:58.503Z,16.6
2022-12-17T12:55:00.454Z,16.4
2022-12-17T12:58:02.454Z,19.2
2022-12-17T13:01:04.443Z,15.8
2022-12-17T13:04:06.397Z,19.6
2022-12-17T13:07:08.357Z,20
2022-12-17T13:10:10.333Z,18.6
2022-12-17T13:13:12.278Z,19.5
2022-12-17T13:16:14.285Z,20
2022-12-17T13:19:16.212Z,19.2
2022-12-17T13:22:23.557Z,22.3
2022-12-17T13:25:20.099Z,19.8
2022-12-17T13:28:25.690Z,21.4
2022-12-17T13:31:24.068Z,21.2
2022-12-17T13:34:26.011Z,19.1
2022-12-17T13:37:27.967Z,23.4
2022-12-17T13:40:29.962Z,23.2
2022-12-17T13:43:31.914Z,17.4
2022-12-17T13:46:33.854Z,20.5
2022-12-17T13:49:35.820Z,21.1
2022-12-17T13:52:37.786Z,22.7
2022-12-17T13:55:39.740Z,22
2022-12-17T13:58:41.681Z,22.2
2022-12-17T14:01:43.740Z,23.4
2022-12-17T14:04:45.626Z,19.9
2022-12-17T14:07:47.594Z,21
2022-12-17T14:10:49.549Z,19.8
2022-12-17T14:13:51.525Z,22.9
2022-12-17T14:16:53.623Z,22.8
2022-12-17T14:19:55.445Z,22.9
2022-12-17T14:22:57.423Z,22.7
2022-12-17T14:25:59.373Z,22.7
2022-12-17T14:29:01.349Z,20.3
2022-12-17T14:32:03.376Z,19.5
2022-12-17T14:35:05.272Z,19.1
2022-12-17T14:38:07.242Z,21.1
2022-12-17T14:41:09.204Z,20.4
2022-12-17T14:44:11.172Z,17.9
2022-12-17T14:47:13.134Z,20.8
2022-12-17T14:50:15.101Z,19.9
2022-12-17T14:53:17.084Z,22.2
2022-12-17T14:56:19.065Z,19.9
2022-12-17T14:59:21.027Z,17.9
2022-12-17T15:02:23.083Z,22.5
2022-12-17T15:05:24.947Z,23.4
2022-12-17T15:08:26.897Z,22.8
2022-12-17T15:11:28.878Z,22.7
2022-12-17T15:14:30.855Z,22.1
2022-12-17T15:17:32.792Z,22.2
2022-12-17T15:20:34.766Z,20.7
2022-12-17T15:23:36.740Z,23.1
2022-12-17T15:26:38.702Z,19.3
2022-12-17T15:29:40.659Z,20.3
2022-12-17T15:32:42.651Z,21.5
2022-12-17T15:35:44.697Z,21.2
2022-12-17T15:38:46.714Z,21.5
2022-12-17T15:41:48.626Z,20.8
2022-12-17T15:44:50.583Z,19.3
2022-12-17T15:47:52.570Z,19.1
2022-12-17T15:50:54.597Z,21.1
2022-12-17T15:53:56.524Z,20.2
2022-12-17T15:56:58.495Z,22
2022-12-17T16:00:00.447Z,21.6
2022-12-17T16:03:02.559Z,22.3
2022-12-17T16:06:04.353Z,20.6
2022-12-17T16:09:06.361Z,20.3
2022-12-17T16:12:08.345Z,22.7
2022-12-17T16:15:10.322Z,20.3
2022-12-17T16:18:12.313Z,20.2
2022-12-17T16:21:14.282Z,20.6
2022-12-17T16:24:16.231Z,23.2
2022-12-17T16:27:18.212Z,21.4
2022-12-17T16:30:20.158Z,22.4
2022-12-17T16:33:22.148Z,19.7
2022-12-17T16:36:24.103Z,20.8
2022-12-17T16:39:26.055Z,21.4
2022-12-17T16:42:28.066Z,20.2
2022-12-17T16:45:29.970Z,20
2022-12-17T16:48:31.945Z,21.4
2022-12-17T16:51:33.907Z,20.3
2022-12-17T16:54:35.925Z,21.3
2022-12-17T16:57:37.901Z,21.4
2022-12-17T17:00:39.859Z,18.6
2022-12-17T17:03:41.854Z,21.6
2022-12-17T17:06:43.777Z,21.7
2022-12-17T17:09:45.719Z,21.5
2022-12-17T17:12:47.724Z,22.8
2022-12-17T17:15:49.917Z,21.9
2022-12-17T17:18:51.640Z,21
2022-12-17T17:21:53.604Z,23.8
2022-12-17T17:24:55.629Z,22.2
2022-12-17T17:27:57.566Z,20
2022-12-17T17:30:59.608Z,20.5
2022-12-17T17:34:01.519Z,22
2022-12-17T17:37:03.514Z,23.9
2022-12-17T17:40:05.477Z,20.1
2022-12-17T17:43:07.478Z,21
2022-12-17T17:46:09.504Z,23.3
2022-12-17T17:49:11.401Z,22.6
2022-12-17T17:52:13.366Z,23.9
2022-12-17T17:55:15.340Z,23.7
2022-12-17T17:58:17.310Z,21.6
2022-12-17T18:01:19.592Z,22.6
2022-12-17T18:04:21.457Z,21.4
2022-12-17T18:07:25.892Z,22.8
2022-12-17T18:10:25.372Z,21.7
2022-12-17T18:13:27.329Z,21.3
2022-12-17T18:16:29.379Z,18.3
2022-12-17T18:19:31.245Z,18.4
2022-12-17T18:22:33.228Z,20.4
2022-12-17T18:25:37.614Z,20.8
2022-12-17T18:28:37.495Z,22
2022-12-17T18:31:39.145Z,21.4
2022-12-17T18:34:41.166Z,26.1
2022-12-17T18:37:43.059Z,22.6
2022-12-17T18:40:45.023Z,19.7
2022-12-17T18:43:46.972Z,21
2022-12-17T18:46:48.973Z,19.1
2022-12-17T18:49:50.917Z,19.4
2022-12-17T18:52:52.871Z,21
2022-12-17T18:55:54.881Z,21.3
2022-12-17T18:58:56.808Z,22.4
2022-12-17T19:01:58.851Z,22.6
2022-12-17T19:05:00.747Z,21.1
2022-12-17T19:08:02.700Z,21.8
2022-12-17T19:11:04.677Z,22.2
2022-12-17T19:14:06.627Z,21.4
2022-12-17T19:17:08.626Z,21.5
2022-12-17T19:20:10.567Z,20.8
2022-12-17T19:23:12.529Z,18.7
2022-12-17T19:26:14.514Z,21.6
2022-12-17T19:29:16.477Z,20.4
2022-12-17T19:32:18.511Z,19.9
2022-12-17T19:35:20.386Z,21.1
2022-12-17T19:38:22.349Z,21
2022-12-17T19:41:24.307Z,20.6
2022-12-17T19:44:26.262Z,20.8
2022-12-17T19:47:28.250Z,21
2022-12-17T19:50:30.250Z,20.9
2022-12-17T19:53:32.162Z,19.3
2022-12-17T19:56:34.129Z,20.5
2022-12-17T19:59:36.104Z,21.5
2022-12-17T20:02:38.107Z,21.7
2022-12-17T20:05:40.026Z,19
2022-12-17T20:08:42.116Z,20.7
2022-12-17T20:11:43.962Z,18.3
2022-12-17T20:14:45.907Z,18
2022-12-17T20:17:47.875Z,20.2
2022-12-17T20:20:49.819Z,20.4
2022-12-17T20:23:51.789Z,19.8
2022-12-17T20:26:53.751Z,19.1
2022-12-17T20:29:55.723Z,18.9
2022-12-17T20:32:57.712Z,20.6
2022-12-17T20:35:59.657Z,21.8
2022-12-17T20:39:01.658Z,20.1
2022-12-17T20:42:03.629Z,20.5
2022-12-17T20:45:05.592Z,20.7
2022-12-17T20:48:07.526Z,23.4
2022-12-17T20:51:09.495Z,20.3
2022-12-17T20:54:11.460Z,17.5
2022-12-17T20:57:13.421Z,22
2022-12-17T21:00:15.388Z,19.5
2022-12-17T21:03:17.452Z,18.3
2022-12-17T21:06:19.294Z,18.3
2022-12-17T21:09:21.267Z,15.8
2022-12-17T21:12:23.242Z,17.2
2022-12-17T21:15:25.199Z,19.5
2022-12-17T21:18:27.158Z,17.9
2022-12-17T21:21:29.125Z,16
2022-12-17T21:24:31.088Z,18.1
2022-12-17T21:27:33.051Z,20.9
2022-12-17T21:30:35.093Z,19.5
2022-12-17T21:33:36.997Z,20.9
2022-12-17T21:36:39.007Z,18.7
2022-12-17T21:39:40.927Z,17.9
2022-12-17T21:42:42.884Z,17.7
2022-12-17T21:45:45.018Z,15.8
2022-12-17T21:48:46.970Z,19.7
2022-12-17T21:51:48.788Z,18.2
2022-12-17T21:54:50.733Z,15.6
2022-12-17T21:57:52.739Z,15.4
2022-12-17T22:00:54.668Z,18.2
2022-12-17T22:03:56.691Z,18.1
2022-12-17T22:07:07.718Z,17.2
2022-12-17T22:10:15.268Z,18.8
2022-12-17T22:13:02.628Z,19.1
2022-12-17T22:16:04.671Z,19.1
2022-12-17T22:19:06.565Z,17.3
2022-12-17T22:22:08.519Z,16.6
2022-12-17T22:25:10.907Z,16.4
2022-12-17T22:28:12.465Z,15.4
2022-12-17T22:31:14.535Z,17.1
2022-12-17T22:34:22.929Z,15.5
2022-12-17T22:39:07.792Z,17.6
2022-12-17T22:42:22.056Z,20.3
2022-12-17T22:44:33.027Z,20.1
2022-12-17T22:46:24.274Z,19
2022-12-17T22:49:26.215Z,18.2
2022-12-17T22:52:28.190Z,19.2
2022-12-17T22:55:30.144Z,17.6
2022-12-17T22:58:32.106Z,17.8
2022-12-17T23:01:34.179Z,17.3
2022-12-17T23:04:36.062Z,18.9
2022-12-17T23:07:38.034Z,20.9
2022-12-17T23:10:39.989Z,22
2022-12-17T23:13:42.069Z,21.9
2022-12-17T23:16:43.923Z,22.7
2022-12-17T23:19:45.900Z,20
2022-12-17T23:22:47.858Z,20.6
2022-12-17T23:25:49.823Z,21.7
2022-12-17T23:28:51.803Z,17.4
2022-12-17T23:31:53.755Z,19.3
2022-12-17T23:34:55.708Z,21.8
2022-12-17T23:37:57.672Z,21.6
2022-12-17T23:40:59.636Z,19.3
2022-12-17T23:44:01.594Z,21.1
2022-12-17T23:47:03.641Z,20.5
2022-12-17T23:50:05.511Z,21
2022-12-17T23:53:07.461Z,19.6
2022-12-17T23:56:09.422Z,19.5
2022-12-17T23:59:11.393Z,19.7
